Time,TemperatureF,DewpointF,PressureIn,WindDirection,WindDirectionDegrees,WindSpeedMPH,WindSpeedGustMPH,Humidity,HourlyPrecipIn,Conditions,Clouds,dailyrainin,SoftwareType,DateUTC
2013-07-08 00:22:00,78.0,54.0,-100.00,South,173,8.0,13.0,44,0.00,,,0.20,,2013-07-08 00:22:00,
2013-07-08 00:33:00,78.0,54.0,-100.00,South,173,8.0,13.0,44,0.00,,,0.20,,2013-07-08 00:33:00,
2013-07-08 00:43:00,78.0,54.0,-100.00,South,173,8.0,13.0,44,0.00,,,0.20,,2013-07-08 00:43:00,
2013-07-08 00:53:00,78.0,54.0,-100.00,South,173,8.0,13.0,44,0.00,,,0.20,,2013-07-08 00:53:00,
2013-07-08 01:11:00,79.0,52.0,-100.00,South,173,7.0,13.0,40,0.00,,,0.11,,2013-07-08 01:11:00,
2013-07-08 01:21:00,79.0,52.0,-100.00,South,173,7.0,13.0,40,0.00,,,0.11,,2013-07-08 01:21:00,
2013-07-08 01:32:00,79.0,52.0,-100.00,South,173,7.0,13.0,40,0.00,,,0.11,,2013-07-08 01:32:00,
2013-07-08 01:42:00,79.0,52.0,-100.00,South,173,7.0,13.0,40,0.00,,,0.11,,2013-07-08 01:42:00,
2013-07-08 01:52:00,79.0,52.0,-100.00,South,173,7.0,13.0,40,0.00,,,0.11,,2013-07-08 01:52:00,
2013-07-08 02:11:00,71.0,50.0,-100.00,SSE,164,7.0,15.0,47,0.00,,,0.05,,2013-07-08 02:11:00,
2013-07-08 02:22:00,71.0,50.0,-100.00,SSE,164,7.0,15.0,47,0.00,,,0.05,,2013-07-08 02:22:00,
2013-07-08 02:33:00,71.0,50.0,-100.00,SSE,164,7.0,15.0,47,0.00,,,0.05,,2013-07-08 02:33:00,
2013-07-08 02:42:00,71.0,50.0,-100.00,SSE,164,7.0,15.0,47,0.00,,,0.05,,2013-07-08 02:42:00,
2013-07-08 02:52:00,71.0,50.0,-100.00,SSE,164,7.0,15.0,47,0.00,,,0.05,,2013-07-08 02:52:00,
2013-07-08 03:12:00,68.0,46.0,-100.00,WSW,249,2.0,5.0,46,0.00,,,0.00,,2013-07-08 03:12:00,
2013-07-08 03:22:00,68.0,46.0,-100.00,WSW,249,2.0,5.0,46,0.00,,,0.00,,2013-07-08 03:22:00,
2013-07-08 03:34:00,68.0,46.0,-100.00,WSW,249,2.0,5.0,46,0.00,,,0.00,,2013-07-08 03:34:00,
2013-07-08 03:42:00,68.0,46.0,-100.00,WSW,249,2.0,5.0,46,0.00,,,0.00,,2013-07-08 03:42:00,
2013-07-08 03:52:00,68.0,46.0,-100.00,WSW,249,2.0,5.0,46,0.00,,,0.00,,2013-07-08 03:52:00,
2013-07-08 04:11:00,65.0,45.0,-100.00,SE,138,5.0,7.0,47,0.00,,,0.00,,2013-07-08 04:11:00,
2013-07-08 04:22:00,65.0,45.0,-100.00,SE,138,5.0,7.0,47,0.00,,,0.00,,2013-07-08 04:22:00,
2013-07-08 04:33:00,65.0,45.0,-100.00,SE,138,5.0,7.0,47,0.00,,,0.00,,2013-07-08 04:33:00,
2013-07-08 04:42:00,65.0,45.0,-100.00,SE,138,5.0,7.0,47,0.00,,,0.00,,2013-07-08 04:42:00,
2013-07-08 04:52:00,65.0,45.0,-100.00,SE,138,5.0,7.0,47,0.00,,,0.00,,2013-07-08 04:52:00,
2013-07-08 05:22:00,61.0,46.0,-100.00,SW,217,4.0,6.0,59,0.00,,,0.00,,2013-07-08 05:22:00,
2013-07-08 05:33:00,61.0,46.0,-100.00,SW,217,4.0,6.0,59,0.00,,,0.00,,2013-07-08 05:33:00,
2013-07-08 05:43:00,61.0,46.0,-100.00,SW,217,4.0,6.0,59,0.00,,,0.00,,2013-07-08 05:43:00,
2013-07-08 05:53:00,61.0,46.0,-100.00,SW,217,4.0,6.0,59,0.00,,,0.00,,2013-07-08 05:53:00,
2013-07-08 06:11:00,54.0,47.0,-100.00,NE,39,1.0,2.0,76,0.00,,,0.00,,2013-07-08 06:11:00,
2013-07-08 06:22:00,54.0,47.0,-100.00,NE,39,1.0,2.0,76,0.00,,,0.00,,2013-07-08 06:22:00,
2013-07-08 06:33:00,54.0,47.0,-100.00,NE,39,1.0,2.0,76,0.00,,,0.00,,2013-07-08 06:33:00,
2013-07-08 06:42:00,54.0,47.0,-100.00,NE,39,1.0,2.0,76,0.00,,,0.00,,2013-07-08 06:42:00,
2013-07-08 06:52:00,54.0,47.0,-100.00,NE,39,1.0,2.0,76,0.00,,,0.00,,2013-07-08 06:52:00,
2013-07-08 07:12:00,51.0,47.0,-100.00,East,88,1.0,2.0,86,0.00,,,0.00,,2013-07-08 07:12:00,
2013-07-08 07:22:00,51.0,47.0,-100.00,East,88,1.0,2.0,86,0.00,,,0.00,,2013-07-08 07:22:00,
2013-07-08 07:34:00,51.0,47.0,-100.00,East,88,1.0,2.0,86,0.00,,,0.00,,2013-07-08 07:34:00,
2013-07-08 07:44:00,51.0,47.0,-100.00,East,88,1.0,2.0,86,0.00,,,0.00,,2013-07-08 07:44:00,
2013-07-08 07:52:00,51.0,47.0,-100.00,East,88,1.0,2.0,86,0.00,,,0.00,,2013-07-08 07:52:00,
2013-07-08 08:11:00,49.0,46.0,-100.00,NW,322,1.0,2.0,91,0.00,,,0.00,,2013-07-08 08:11:00,
2013-07-08 08:22:00,49.0,46.0,-100.00,NW,322,1.0,2.0,91,0.00,,,0.00,,2013-07-08 08:22:00,
2013-07-08 08:42:00,49.0,46.0,-100.00,NW,322,1.0,2.0,91,0.00,,,0.00,,2013-07-08 08:42:00,
2013-07-08 08:52:00,49.0,46.0,-100.00,NW,322,1.0,2.0,91,0.00,,,0.00,,2013-07-08 08:52:00,
2013-07-08 12:11:00,43.0,42.0,-100.00,NNW,345,2.0,5.0,98,-99.99,,,0.00,,2013-07-08 12:11:00,
2013-07-08 12:22:00,43.0,42.0,-100.00,NNW,345,2.0,5.0,98,-99.99,,,0.00,,2013-07-08 12:22:00,
2013-07-08 12:43:00,43.0,42.0,-100.00,NNW,345,2.0,5.0,98,-99.99,,,0.00,,2013-07-08 12:43:00,
2013-07-08 12:53:00,43.0,42.0,-100.00,NNW,345,2.0,5.0,98,-99.99,,,0.00,,2013-07-08 12:53:00,
2013-07-08 13:33:00,47.0,44.0,-100.00,NNW,343,1.0,2.0,89,0.00,,,0.00,,2013-07-08 13:33:00,
2013-07-08 13:42:00,47.0,44.0,-100.00,NNW,343,1.0,2.0,89,0.00,,,0.00,,2013-07-08 13:42:00,
2013-07-08 13:53:00,47.0,44.0,-100.00,NNW,343,1.0,2.0,89,0.00,,,0.00,,2013-07-08 13:53:00,
2013-07-08 14:12:00,58.0,50.0,-100.00,NNW,336,1.0,4.0,75,0.00,,,0.00,,2013-07-08 14:12:00,
2013-07-08 14:22:00,58.0,50.0,-100.00,NNW,336,1.0,4.0,75,0.00,,,0.00,,2013-07-08 14:22:00,
2013-07-08 14:33:00,58.0,50.0,-100.00,NNW,336,1.0,4.0,75,0.00,,,0.00,,2013-07-08 14:33:00,
2013-07-08 14:43:00,58.0,50.0,-100.00,NNW,336,1.0,4.0,75,0.00,,,0.00,,2013-07-08 14:43:00,
2013-07-08 14:53:00,58.0,50.0,-100.00,NNW,336,1.0,4.0,75,0.00,,,0.00,,2013-07-08 14:53:00,
2013-07-08 15:33:00,66.0,50.0,-100.00,NNW,331,1.0,2.0,56,0.00,,,0.00,,2013-07-08 15:33:00,
2013-07-08 15:43:00,66.0,50.0,-100.00,NNW,331,1.0,2.0,56,0.00,,,0.00,,2013-07-08 15:43:00,
2013-07-08 15:53:00,66.0,50.0,-100.00,NNW,331,1.0,2.0,56,0.00,,,0.00,,2013-07-08 15:53:00,
2013-07-08 16:22:00,70.0,52.0,-100.00,South,188,2.0,5.0,53,0.00,,,0.00,,2013-07-08 16:22:00,
2013-07-08 16:33:00,70.0,52.0,-100.00,South,188,2.0,5.0,53,0.00,,,0.00,,2013-07-08 16:33:00,
2013-07-08 16:43:00,70.0,52.0,-100.00,South,188,2.0,5.0,53,0.00,,,0.00,,2013-07-08 16:43:00,
2013-07-08 16:53:00,70.0,52.0,-100.00,South,188,2.0,5.0,53,0.00,,,0.00,,2013-07-08 16:53:00,
2013-07-08 17:35:00,71.0,51.0,-100.00,West,279,115.0,115.0,49,0.00,,,0.00,,2013-07-08 17:35:00,
2013-07-08 17:44:00,71.0,51.0,-100.00,West,279,115.0,115.0,49,0.00,,,0.00,,2013-07-08 17:44:00,
2013-07-08 17:53:00,71.0,51.0,-100.00,West,279,115.0,115.0,49,0.00,,,0.00,,2013-07-08 17:53:00,
2013-07-08 18:27:00,71.0,52.0,-100.00,SW,223,5.0,10.0,50,0.00,,,0.00,,2013-07-08 18:27:00,
2013-07-08 18:36:00,71.0,52.0,-100.00,SW,223,5.0,10.0,50,0.00,,,0.00,,2013-07-08 18:36:00,
2013-07-08 18:45:00,71.0,52.0,-100.00,SW,223,5.0,10.0,50,0.00,,,0.00,,2013-07-08 18:45:00,
2013-07-08 19:16:00,73.0,53.0,-100.00,SSW,200,9.0,20.0,49,0.00,,,0.00,,2013-07-08 19:16:00,
2013-07-08 19:26:00,73.0,53.0,-100.00,SSW,200,9.0,20.0,49,0.00,,,0.00,,2013-07-08 19:26:00,
2013-07-08 19:53:00,73.0,53.0,-100.00,SSW,200,9.0,20.0,49,0.00,,,0.00,,2013-07-08 19:53:00,
2013-07-08 20:26:00,73.0,50.0,-100.00,SW,233,6.0,9.0,44,0.00,,,0.00,,2013-07-08 20:26:00,
2013-07-08 20:36:00,73.0,50.0,-100.00,SW,233,6.0,9.0,44,0.00,,,0.00,,2013-07-08 20:36:00,
2013-07-08 20:45:00,73.0,50.0,-100.00,SW,233,6.0,9.0,44,0.00,,,0.00,,2013-07-08 20:45:00,
2013-07-08 20:54:00,77.0,50.0,-100.00,SSW,192,8.0,14.0,38,0.00,,,-99.99,,2013-07-08 20:54:00,
2013-07-08 21:26:00,77.0,50.0,-100.00,SSW,192,8.0,14.0,38,0.00,,,-99.99,,2013-07-08 21:26:00,
2013-07-08 22:18:00,79.0,48.0,-100.00,SW,216,13.0,23.0,34,0.00,,,0.00,,2013-07-08 22:18:00,
2013-07-08 22:37:00,79.0,48.0,-100.00,SW,216,13.0,23.0,34,0.00,,,0.00,,2013-07-08 22:37:00,
2013-07-08 22:53:00,79.0,48.0,-100.00,SW,216,13.0,23.0,34,0.00,,,0.00,,2013-07-08 22:53:00,
2013-07-08 23:27:00,78.0,47.0,-100.00,SSW,208,10.0,23.0,33,0.00,,,0.00,,2013-07-08 23:27:00,
2013-07-08 23:37:00,78.0,47.0,-100.00,SSW,208,10.0,23.0,33,0.00,,,0.00,,2013-07-08 23:37:00,